Time;durP1;ratioP1;P1;durP2;ratioP2;P2;SDS_P1;SDS_P2;PMS_P1;PMS_P2;Temp;Humidity;BMP_temperature;BMP_pressure;BME280_temperature;BME280_humidity;BME280_pressure;Samples;Min_cycle;Max_cycle;Signal;HPM_P1;HPM_P2
2022/10/08 00:07:44;;;;;;;17.17;14.63;;;;;;;23.25;55.89;100966.47;20634161;28;20039;-71
2022/10/08 00:17:44;;;;;;;19.63;15.47;;;;;;;23.18;56.12;100945.00;20623657;28;20046;-71
2022/10/08 00:27:45;;;;;;;18.35;15.35;;;;;;;23.17;56.02;100940.66;20629450;28;21691;-72
2022/10/08 00:37:45;;;;;;;18.10;15.20;;;;;;;23.17;56.23;100922.16;20630379;28;20058;-71
2022/10/08 00:47:47;;;;;;;18.52;14.43;;;;;;;23.15;56.32;100916.94;20636124;28;20172;-71
2022/10/08 00:57:48;;;;;;;18.13;13.90;;;;;;;23.13;56.00;100910.97;20633326;28;20053;-71
2022/10/08 01:08:32;;;;;;;16.40;13.75;;;;;;;23.14;56.27;100911.78;21521050;22;20121;-71
2022/10/08 01:18:37;;;;;;;16.20;14.10;;;;;;;23.12;56.20;100900.50;20632041;28;20069;-71
2022/10/08 01:28:47;;;;;;;17.75;14.18;;;;;;;23.11;56.20;100896.19;20630740;28;20049;-71
2022/10/08 01:38:53;;;;;;;16.08;13.63;;;;;;;23.08;56.23;100885.84;20631398;28;20126;-70
2022/10/08 01:48:59;;;;;;;15.40;13.10;;;;;;;23.08;56.23;100872.66;20633051;28;20516;-71
2022/10/08 01:59:06;;;;;;;15.80;13.43;;;;;;;23.07;56.18;100865.69;20635798;28;20121;-71
2022/10/08 02:09:08;;;;;;;15.07;12.48;;;;;;;23.07;56.32;100863.91;20625265;28;24641;-70
2022/10/08 02:19:25;;;;;;;13.48;11.75;;;;;;;23.05;56.05;100857.88;20630953;28;20035;-71
2022/10/08 02:29:33;;;;;;;12.85;11.07;;;;;;;23.01;56.06;100854.63;20627815;28;20141;-71
2022/10/08 02:39:42;;;;;;;12.68;11.38;;;;;;;23.00;56.27;100850.31;20625346;28;20042;-71
2022/10/08 02:49:52;;;;;;;13.50;11.07;;;;;;;22.99;56.26;100847.81;20637424;28;20054;-71
2022/10/08 02:59:52;;;;;;;12.00;10.50;;;;;;;22.97;56.32;100847.94;20640778;28;20168;-71
2022/10/08 03:09:55;;;;;;;11.85;10.23;;;;;;;22.97;56.31;100847.94;20637039;28;20088;-71
2022/10/08 03:19:56;;;;;;;11.88;9.88;;;;;;;22.96;56.41;100850.66;20632446;28;20041;-71
2022/10/08 03:29:56;;;;;;;12.63;10.20;;;;;;;22.95;56.43;100852.47;20639900;28;20054;-71
2022/10/08 03:39:57;;;;;;;11.88;10.30;;;;;;;22.92;56.09;100852.69;20636569;28;20052;-71
2022/10/08 03:49:57;;;;;;;11.23;9.02;;;;;;;22.91;56.20;100845.78;20637734;28;20092;-71
2022/10/08 03:59:58;;;;;;;9.75;8.75;;;;;;;22.89;56.24;100837.13;20649771;28;20042;-71
2022/10/08 04:09:58;;;;;;;10.98;9.63;;;;;;;22.88;56.43;100832.78;20654604;28;20034;-71
2022/10/08 04:19:58;;;;;;;12.43;9.20;;;;;;;22.87;56.27;100831.09;20649573;28;20122;-72
2022/10/08 04:29:59;;;;;;;10.32;8.30;;;;;;;22.86;56.19;100829.41;20649480;28;20124;-71
2022/10/08 04:39:59;;;;;;;9.52;8.52;;;;;;;22.85;56.26;100836.50;20653304;28;20038;-71
2022/10/08 04:49:59;;;;;;;9.25;8.02;;;;;;;22.82;56.39;100838.53;20651313;28;20038;-71
2022/10/08 05:00:00;;;;;;;8.60;7.68;;;;;;;22.83;56.24;100835.78;20644697;28;20034;-71
2022/10/08 05:10:00;;;;;;;8.82;7.93;;;;;;;22.84;56.14;100840.09;20653495;28;20133;-70
2022/10/08 05:20:01;;;;;;;9.23;7.90;;;;;;;22.90;56.96;100846.72;20640822;28;20034;-71
2022/10/08 05:30:02;;;;;;;9.23;8.00;;;;;;;22.89;56.77;100852.97;20652942;28;20039;-71
2022/10/08 05:40:03;;;;;;;13.05;8.35;;;;;;;22.88;57.24;100858.38;20647413;28;20053;-71
2022/10/08 05:50:04;;;;;;;10.15;7.90;;;;;;;22.89;57.01;100860.03;20647693;28;20412;-71
2022/10/08 06:00:05;;;;;;;8.48;7.47;;;;;;;22.89;57.55;100870.59;20648806;28;20136;-71
2022/10/08 06:10:05;;;;;;;8.23;7.18;;;;;;;22.95;57.50;100872.75;20630647;28;20042;-71
2022/10/08 06:20:06;;;;;;;14.30;9.95;;;;;;;23.00;58.21;100882.00;20637673;28;21170;-71
2022/10/08 06:30:07;;;;;;;13.15;9.73;;;;;;;23.02;58.20;100885.38;20645536;28;20033;-70
2022/10/08 06:40:08;;;;;;;13.50;9.07;;;;;;;22.58;51.23;100894.06;20642723;28;20046;-71
2022/10/08 06:50:10;;;;;;;15.97;8.53;;;;;;;22.78;53.77;100892.56;20643620;28;20050;-68
2022/10/08 07:00:11;;;;;;;12.73;8.45;;;;;;;22.83;55.09;100907.06;20647349;28;20137;-67
2022/10/08 07:10:12;;;;;;;13.90;9.27;;;;;;;22.91;56.18;100897.72;20664955;28;20209;-73
2022/10/08 07:20:12;;;;;;;16.73;10.40;;;;;;;22.95;57.57;100892.09;20651184;28;20042;-74
2022/10/08 07:30:13;;;;;;;13.73;9.27;;;;;;;22.99;57.47;100890.06;20643858;28;20034;-72
2022/10/08 07:40:13;;;;;;;15.63;9.80;;;;;;;23.03;57.88;100900.28;20665849;28;20030;-72
2022/10/08 07:50:14;;;;;;;14.52;9.48;;;;;;;23.07;57.76;100892.94;20660051;28;20085;-71
2022/10/08 08:00:14;;;;;;;14.50;9.57;;;;;;;23.07;57.16;100892.09;20657242;28;20069;-71
2022/10/08 08:10:16;;;;;;;13.07;9.15;;;;;;;23.02;54.46;100879.25;20665026;28;20180;-70
2022/10/08 08:20:16;;;;;;;13.77;9.17;;;;;;;23.05;54.01;100872.91;20627123;28;20068;-69
2022/10/08 08:30:16;;;;;;;12.73;8.57;;;;;;;23.08;54.46;100875.28;20641695;28;20070;-80
2022/10/08 08:40:18;;;;;;;15.15;10.05;;;;;;;23.14;54.72;100878.31;20680133;28;21196;-77
2022/10/08 08:50:26;;;;;;;15.57;12.00;;;;;;;23.25;57.04;100869.53;20701735;28;20073;-76
2022/10/08 09:00:35;;;;;;;15.32;10.80;;;;;;;23.28;57.02;100868.50;20700506;28;20041;-78
2022/10/08 09:10:44;;;;;;;11.95;9.27;;;;;;;23.32;56.91;100872.56;20679661;28;20045;-77
2022/10/08 09:20:44;;;;;;;20.88;9.82;;;;;;;23.37;56.15;100870.38;20671433;28;20068;-80
2022/10/08 09:30:46;;;;;;;16.08;8.88;;;;;;;23.43;53.30;100861.97;20669061;28;20050;-76
2022/10/08 09:41:02;;;;;;;18.43;12.53;;;;;;;23.59;58.68;100858.94;20661158;28;20120;-76
2022/10/08 09:51:10;;;;;;;17.83;11.02;;;;;;;23.67;57.20;100853.88;20667141;28;20053;-79
2022/10/08 10:01:13;;;;;;;11.25;7.35;;;;;;;23.64;50.31;100845.34;20682368;28;20104;-76
2022/10/08 10:11:23;;;;;;;10.60;6.47;;;;;;;23.75;53.78;100825.97;20591456;28;20042;-73
2022/10/08 10:22:05;;;;;;;6.85;5.03;;;;;;;23.49;45.23;100821.00;20604715;28;20042;-70
2022/10/08 10:32:13;;;;;;;;;;;;;;;23.54;46.93;100800.31;20589003;28;20046;-75
2022/10/08 10:42:26;;;;;;;12.00;4.55;;;;;;;23.67;48.20;100776.38;20564665;28;24457;-79
2022/10/08 10:52:52;;;;;;;10.02;4.68;;;;;;;23.79;50.07;100766.56;20644749;28;20046;-79
2022/10/08 11:03:13;;;;;;;14.07;5.88;;;;;;;23.88;51.01;100749.97;20659270;28;20042;-74
2022/10/08 11:13:52;;;;;;;10.82;5.22;;;;;;;23.97;51.71;100745.72;20645134;28;20054;-77
2022/10/08 11:24:22;;;;;;;7.40;5.15;;;;;;;24.05;51.89;100734.53;20655384;28;20050;-79
2022/10/08 11:34:28;;;;;;;10.90;5.60;;;;;;;24.11;52.27;100720.78;20656135;28;20422;-80
2022/10/08 11:44:30;;;;;;;9.25;5.45;;;;;;;24.20;52.47;100706.75;20661068;28;20048;-80
2022/10/08 11:54:33;;;;;;;7.18;5.35;;;;;;;24.28;52.38;100696.34;20651028;28;20443;-79
2022/10/08 12:04:36;;;;;;;6.30;4.90;;;;;;;24.33;52.53;100684.53;20650430;28;20088;-78
2022/10/08 12:14:44;;;;;;;9.32;5.30;;;;;;;24.35;52.54;100683.44;20670283;28;20432;-79
2022/10/08 12:24:51;;;;;;;6.47;4.90;;;;;;;24.40;52.82;100661.84;20671822;28;20045;-75
2022/10/08 12:34:51;;;;;;;6.80;4.35;;;;;;;24.42;52.67;100652.81;20669478;28;20090;-80
2022/10/08 12:45:10;;;;;;;5.30;4.18;;;;;;;24.48;52.63;100653.25;20637106;28;20118;-75
2022/10/08 12:55:16;;;;;;;5.72;4.45;;;;;;;24.49;52.67;100647.81;20658638;28;20051;-80
2022/10/08 13:05:37;;;;;;;6.18;4.20;;;;;;;24.49;52.67;100639.06;20656419;28;20054;-79
2022/10/08 13:15:37;;;;;;;5.60;4.17;;;;;;;24.46;53.08;100640.13;20651698;28;20062;-79
2022/10/08 13:25:41;;;;;;;5.50;4.25;;;;;;;24.41;53.21;100629.97;20654860;28;20052;-78
2022/10/08 13:35:48;;;;;;;6.07;4.05;;;;;;;24.36;53.07;100623.41;20647924;28;20387;-75
2022/10/08 13:45:49;;;;;;;5.50;3.90;;;;;;;24.33;53.24;100619.22;20650002;28;20050;-79
2022/10/08 13:55:49;;;;;;;4.53;3.75;;;;;;;24.32;53.24;100616.72;20651335;28;20069;-78
2022/10/08 14:05:50;;;;;;;4.13;3.63;;;;;;;24.29;53.31;100610.72;20655950;28;20038;-79
2022/10/08 14:15:51;;;;;;;4.07;3.67;;;;;;;24.27;53.23;100588.81;20656704;28;20046;-79
2022/10/08 14:25:52;;;;;;;4.33;3.93;;;;;;;24.25;53.27;100589.94;20661196;28;20177;-79
2022/10/08 14:35:53;;;;;;;4.60;3.67;;;;;;;24.27;53.58;100585.34;20683210;28;20073;-77
2022/10/08 14:45:54;;;;;;;14.23;3.90;;;;;;;24.25;53.24;100587.28;20684777;28;20046;-77
2022/10/08 14:55:56;;;;;;;6.30;3.83;;;;;;;24.20;53.24;100576.28;20688405;28;20080;-81
2022/10/08 15:05:57;;;;;;;6.65;4.10;;;;;;;24.17;53.74;100585.31;20693298;28;20485;-71
2022/10/08 15:15:58;;;;;;;70.88;58.65;;;;;;;24.13;53.51;100578.59;20694540;28;20045;-73
2022/10/08 15:26:01;;;;;;;43.13;36.58;;;;;;;24.09;51.82;100587.78;20687645;28;20092;-73
2022/10/08 15:36:01;;;;;;;35.47;27.85;;;;;;;24.02;51.59;100573.41;20689167;28;20050;-73
2022/10/08 15:46:14;;;;;;;30.60;26.98;;;;;;;24.00;51.93;100578.00;20663879;28;20052;-76
2022/10/08 15:56:15;;;;;;;30.40;26.27;;;;;;;24.02;52.77;100590.13;20665259;28;20046;-74
2022/10/08 16:06:19;;;;;;;30.90;26.30;;;;;;;24.00;53.74;100591.22;20673917;28;20056;-76
2022/10/08 16:16:20;;;;;;;34.30;26.25;;;;;;;23.97;54.53;100590.53;20681474;28;20397;-75
2022/10/08 16:26:21;;;;;;;28.10;24.47;;;;;;;23.97;55.24;100598.47;20671097;28;20042;-73
2022/10/08 16:36:22;;;;;;;27.73;24.30;;;;;;;23.94;55.43;100609.28;20669019;28;20046;-74
2022/10/08 16:46:31;;;;;;;31.42;23.92;;;;;;;23.94;55.86;100619.88;20659081;28;20404;-77
2022/10/08 16:56:35;;;;;;;28.52;23.52;;;;;;;23.91;56.11;100625.41;20669068;28;20049;-74
2022/10/08 17:06:36;;;;;;;27.73;23.23;;;;;;;23.90;56.13;100628.16;20657373;28;20041;-75
2022/10/08 17:16:37;;;;;;;27.42;22.20;;;;;;;23.86;56.65;100632.06;20665987;28;20060;-75
2022/10/08 17:26:38;;;;;;;26.42;21.50;;;;;;;23.85;56.69;100631.19;20662855;28;20045;-75
2022/10/08 17:36:40;;;;;;;23.98;21.17;;;;;;;23.83;56.75;100646.38;20659548;28;20046;-77
2022/10/08 17:46:44;;;;;;;;;;;;;;;23.82;57.00;100658.75;20671390;28;20122;-75
2022/10/08 17:56:45;;;;;;;21.92;19.55;;;;;;;23.81;57.07;100665.03;20669336;28;19930;-77
2022/10/08 18:06:46;;;;;;;23.05;18.73;;;;;;;23.80;57.12;100668.63;20672579;28;20050;-77
2022/10/08 18:16:47;;;;;;;23.00;18.13;;;;;;;23.81;57.50;100672.97;20656636;28;20046;-78
2022/10/08 18:26:47;;;;;;;21.52;16.70;;;;;;;23.80;57.76;100679.22;20676005;28;20041;-76
2022/10/08 18:36:48;;;;;;;20.02;16.38;;;;;;;23.78;58.42;100688.25;20675831;28;20076;-74
2022/10/08 18:46:49;;;;;;;21.25;16.42;;;;;;;23.77;58.25;100687.38;20655887;28;20144;-73
2022/10/08 18:56:49;;;;;;;18.92;15.05;;;;;;;23.73;58.43;100696.56;20652257;28;20034;-73
2022/10/08 19:06:52;;;;;;;17.10;14.57;;;;;;;23.74;58.19;100702.66;20652167;28;20081;-74
2022/10/08 19:16:52;;;;;;;17.63;13.60;;;;;;;23.73;58.26;100704.50;20666823;28;20053;-72
2022/10/08 19:26:56;;;;;;;21.48;13.63;;;;;;;23.78;58.49;100712.88;20635408;28;20046;-72
2022/10/08 19:36:56;;;;;;;18.33;12.93;;;;;;;23.78;58.38;100723.44;20661905;28;20489;-75
2022/10/08 19:46:56;;;;;;;22.05;12.70;;;;;;;23.72;58.12;100726.59;20681149;28;20088;-75
2022/10/08 19:56:57;;;;;;;18.77;12.32;;;;;;;23.58;58.13;100727.75;20669267;28;20046;-75
2022/10/08 20:07:00;;;;;;;19.23;11.77;;;;;;;23.58;58.17;100711.03;20674035;28;20065;-77
2022/10/08 20:17:00;;;;;;;14.73;11.00;;;;;;;23.57;57.78;100725.22;20673023;28;20046;-78
2022/10/08 20:27:00;;;;;;;13.45;10.43;;;;;;;23.49;57.98;100749.66;20675234;28;20046;-77
2022/10/08 20:37:03;;;;;;;15.85;11.13;;;;;;;23.47;58.13;100748.91;20669871;28;20042;-77
2022/10/08 20:47:03;;;;;;;14.93;10.95;;;;;;;23.45;57.95;100742.94;20668481;28;20042;-77
2022/10/08 20:57:07;;;;;;;16.25;11.18;;;;;;;23.43;58.03;100750.16;20683102;28;20044;-75
2022/10/08 21:07:07;;;;;;;15.90;10.48;;;;;;;23.41;57.97;100760.00;20695600;28;20042;-77
2022/10/08 21:17:08;;;;;;;13.18;10.15;;;;;;;23.40;57.71;100739.81;20697010;28;20050;-77
2022/10/08 21:27:08;;;;;;;13.98;10.07;;;;;;;23.36;57.94;100744.50;20668410;28;20046;-78
2022/10/08 21:37:09;;;;;;;14.43;10.50;;;;;;;23.36;57.64;100733.94;20667307;28;20046;-77
2022/10/08 21:47:09;;;;;;;11.00;9.10;;;;;;;23.32;57.98;100730.69;20671642;28;20046;-75
2022/10/08 21:57:09;;;;;;;12.15;9.55;;;;;;;23.33;57.32;100739.47;20666910;28;20938;-74
2022/10/08 22:07:09;;;;;;;11.68;9.60;;;;;;;23.32;57.70;100740.44;20664238;28;20571;-75
2022/10/08 22:17:10;;;;;;;13.55;10.35;;;;;;;23.28;57.58;100741.66;20651081;28;20452;-76
2022/10/08 22:27:10;;;;;;;11.07;9.52;;;;;;;23.28;57.83;100749.59;20649013;28;20140;-76
2022/10/08 22:37:11;;;;;;;11.73;9.50;;;;;;;23.26;57.52;100759.44;20654535;28;20042;-76
2022/10/08 22:47:11;;;;;;;12.80;9.65;;;;;;;23.24;57.74;100764.84;20655571;28;20038;-77
2022/10/08 22:57:11;;;;;;;12.45;9.02;;;;;;;23.22;57.53;100774.69;20655079;28;20049;-78
2022/10/08 23:07:12;;;;;;;10.63;8.90;;;;;;;23.21;57.76;100780.94;20654572;28;20121;-76
2022/10/08 23:17:12;;;;;;;12.23;8.73;;;;;;;23.17;57.93;100776.88;20673742;28;20038;-76
2022/10/08 23:27:13;;;;;;;10.52;8.57;;;;;;;23.15;57.67;100782.22;20671537;28;20058;-76
2022/10/08 23:37:13;;;;;;;10.60;8.02;;;;;;;23.13;57.56;100785.94;20659633;28;20069;-77
2022/10/08 23:47:13;;;;;;;9.75;8.30;;;;;;;23.13;57.74;100788.59;20662821;28;20043;-75
2022/10/08 23:57:14;;;;;;;8.70;7.80;;;;;;;23.12;57.97;100785.13;20666913;28;20038;-76
